METAR Data

Data at: 1107 UTC 24 May 2022

METAR for:KPYM (Plymouth Muni, MA, US)
Text:KPYM 241052Z AUTO 04011G16KT 10SM CLR 12/07 A3032 RMK AO2 SLP265 T01220067
Temperature: 12.2°C ( 54°F)
Dewpoint: 6.7°C ( 44°F) [RH = 69%]
Pressure (altimeter):30.32 inches Hg (1026.8 mb) [Sea level pressure: 1026.5 mb]
Winds:from the NE (40 degrees) at 13 MPH (11 knots; 5.7 m/s) gusting to 18 MPH (16 knots; 8.2 m/s)
Visibility:10 or more sm (16+ km)
Ceiling:at least 12,000 feet AGL
Clouds:sky clear below 12,000 feet AGL
QC Flag:automated observation with no human augmentation